createdAt,value
2019-02-10T00:01:15.037Z,8.18
2019-02-10T00:02:14.979Z,8.20
2019-02-10T00:04:07.763Z,8.18
2019-02-10T00:05:07.657Z,8.24
2019-02-10T00:07:00.434Z,8.32
2019-02-10T00:08:00.345Z,8.34
2019-02-10T00:09:53.118Z,8.25
2019-02-10T00:10:53.035Z,8.29
2019-02-10T00:12:45.791Z,8.14
2019-02-10T00:13:45.743Z,8.21
2019-02-10T00:15:38.520Z,8.10
2019-02-10T00:16:38.431Z,8.07
2019-02-10T00:18:31.225Z,8.12
2019-02-10T00:19:31.149Z,8.13
2019-02-10T00:21:23.926Z,8.13
2019-02-10T00:22:23.835Z,8.02
2019-02-10T00:24:16.616Z,8.03
2019-02-10T00:25:16.527Z,7.95
2019-02-10T00:27:09.285Z,7.99
2019-02-10T00:28:09.235Z,7.89
2019-02-10T00:30:02.016Z,7.86
2019-02-10T00:31:01.920Z,7.82
2019-02-10T00:32:54.680Z,7.85
2019-02-10T00:33:54.612Z,7.91
2019-02-10T00:35:47.397Z,7.81
2019-02-10T00:36:47.321Z,7.79
2019-02-10T00:38:40.091Z,7.69
2019-02-10T00:39:40.020Z,7.71
2019-02-10T00:41:32.863Z,7.77
2019-02-10T00:42:32.729Z,7.63
2019-02-10T00:44:25.513Z,7.73
2019-02-10T00:45:25.421Z,7.76
2019-02-10T00:47:18.204Z,7.77
2019-02-10T00:48:18.135Z,7.84
2019-02-10T00:50:10.941Z,7.79
2019-02-10T00:51:10.852Z,7.77
2019-02-10T00:53:03.613Z,7.99
2019-02-10T00:54:03.552Z,7.89
2019-02-10T00:55:56.328Z,7.89
2019-02-10T00:56:56.234Z,7.94
2019-02-10T00:58:49.005Z,7.96
2019-02-10T00:59:48.929Z,7.89
2019-02-10T01:01:41.702Z,7.84
2019-02-10T01:02:41.639Z,7.81
2019-02-10T01:04:34.402Z,7.74
2019-02-10T01:05:34.327Z,7.74
2019-02-10T01:07:27.080Z,7.76
2019-02-10T01:08:27.012Z,7.81
2019-02-10T01:10:19.791Z,7.84
2019-02-10T01:11:19.740Z,7.77
2019-02-10T01:13:12.583Z,7.81
2019-02-10T01:14:12.510Z,7.82
2019-02-10T01:16:05.298Z,7.85
2019-02-10T01:17:05.209Z,7.81
2019-02-10T01:18:57.979Z,7.82
2019-02-10T01:19:57.917Z,7.85
2019-02-10T01:21:50.662Z,7.76
2019-02-10T01:22:50.604Z,7.82
2019-02-10T01:24:43.359Z,7.71
2019-02-10T01:25:43.275Z,7.70
2019-02-10T01:27:36.038Z,7.67
2019-02-10T01:28:35.970Z,7.60
2019-02-10T01:30:28.743Z,7.51
2019-02-10T01:31:28.662Z,7.39
2019-02-10T01:33:21.442Z,7.47
2019-02-10T01:34:21.352Z,7.32
2019-02-10T01:36:14.149Z,7.39
2019-02-10T01:37:14.074Z,7.33
2019-02-10T01:39:07.026Z,7.32
2019-02-10T01:40:06.955Z,7.24
2019-02-10T01:41:59.720Z,7.24
2019-02-10T01:42:59.638Z,7.16
2019-02-10T01:44:52.417Z,7.15
2019-02-10T01:45:52.324Z,7.15
2019-02-10T01:47:45.084Z,7.11
2019-02-10T01:48:45.030Z,7.08
2019-02-10T01:50:37.848Z,7.07
2019-02-10T01:51:37.716Z,7.14
2019-02-10T01:53:30.456Z,6.99
2019-02-10T01:54:30.383Z,6.97
2019-02-10T01:57:02.003Z,6.97
2019-02-10T01:58:01.918Z,7.00
2019-02-10T01:59:54.693Z,6.91
2019-02-10T02:00:54.612Z,6.91
2019-02-10T02:02:47.472Z,6.91
2019-02-10T02:03:47.310Z,6.90
2019-02-10T02:05:40.109Z,6.94
2019-02-10T02:06:40.021Z,6.81
2019-02-10T02:08:32.777Z,6.78
2019-02-10T02:09:32.708Z,6.81
2019-02-10T02:11:25.541Z,6.79
2019-02-10T02:12:25.458Z,6.82
2019-02-10T02:14:18.212Z,6.79
2019-02-10T02:15:18.137Z,6.73
2019-02-10T02:17:10.904Z,6.81
2019-02-10T02:18:10.820Z,6.63
2019-02-10T02:20:03.626Z,6.78
2019-02-10T02:21:03.541Z,6.75
2019-02-10T02:22:56.320Z,6.69
2019-02-10T02:23:56.248Z,6.69
2019-02-10T02:25:49.032Z,6.72
2019-02-10T02:26:48.951Z,6.68
2019-02-10T02:28:41.713Z,6.81
2019-02-10T02:29:41.645Z,6.69
2019-02-10T02:31:34.415Z,6.60
2019-02-10T02:32:34.345Z,6.65
2019-02-10T02:34:27.101Z,6.69
2019-02-10T02:35:27.026Z,6.72
2019-02-10T02:37:19.782Z,6.73
2019-02-10T02:38:19.701Z,6.63
2019-02-10T02:40:12.469Z,6.71
2019-02-10T02:41:12.385Z,6.65
2019-02-10T02:43:05.138Z,6.72
2019-02-10T02:44:05.072Z,6.64
2019-02-10T02:45:57.833Z,6.64
2019-02-10T02:46:57.752Z,6.61
2019-02-10T02:48:50.503Z,6.65
2019-02-10T02:49:50.429Z,6.64
2019-02-10T02:51:43.192Z,6.60
2019-02-10T02:52:43.110Z,6.64
2019-02-10T02:54:35.862Z,6.73
2019-02-10T02:55:35.792Z,6.65
2019-02-10T02:57:28.568Z,6.68
2019-02-10T02:58:28.505Z,6.60
2019-02-10T03:00:21.252Z,6.69
2019-02-10T03:01:21.160Z,6.63
2019-02-10T03:03:13.931Z,6.68
2019-02-10T03:04:13.860Z,6.58
2019-02-10T03:06:06.636Z,6.65
2019-02-10T03:07:06.550Z,6.60
2019-02-10T03:08:59.309Z,6.57
2019-02-10T03:09:59.241Z,6.57
2019-02-10T03:11:52.014Z,6.55
2019-02-10T03:12:51.933Z,6.60
2019-02-10T03:14:44.685Z,6.55
2019-02-10T03:15:44.618Z,6.55
2019-02-10T03:17:37.394Z,6.50
2019-02-10T03:18:37.303Z,6.50
2019-02-10T03:20:30.085Z,6.51
2019-02-10T03:21:30.000Z,6.43
2019-02-10T03:23:22.768Z,6.51
2019-02-10T03:24:22.701Z,6.48
2019-02-10T03:26:15.459Z,6.38
2019-02-10T03:27:15.383Z,6.36
2019-02-10T03:29:08.199Z,6.45
2019-02-10T03:30:08.126Z,6.48
2019-02-10T03:32:00.915Z,6.33
2019-02-10T03:33:00.826Z,6.33
2019-02-10T03:34:53.577Z,6.55
2019-02-10T03:35:53.503Z,6.38
2019-02-10T03:37:46.275Z,6.40
2019-02-10T03:38:46.192Z,6.42
2019-02-10T03:40:38.963Z,6.39
2019-02-10T03:41:38.876Z,6.36
2019-02-10T03:43:31.637Z,6.33
2019-02-10T03:44:31.562Z,6.28
2019-02-10T03:46:24.320Z,6.33
2019-02-10T03:47:24.243Z,6.39
2019-02-10T03:49:17.000Z,6.27
2019-02-10T03:50:16.929Z,6.30
2019-02-10T03:52:09.703Z,6.20
2019-02-10T03:53:09.620Z,6.21
2019-02-10T03:55:02.397Z,6.06
2019-02-10T03:56:02.311Z,6.14
2019-02-10T03:57:55.070Z,6.20
2019-02-10T03:58:54.990Z,6.11
2019-02-10T04:00:47.757Z,6.13
2019-02-10T04:01:47.675Z,6.06
2019-02-10T04:03:40.429Z,6.06
2019-02-10T04:04:40.365Z,5.98
2019-02-10T04:06:33.121Z,5.98
2019-02-10T04:07:36.255Z,6.03
2019-02-10T04:09:25.789Z,5.99
2019-02-10T04:10:25.722Z,6.03
2019-02-10T04:12:18.485Z,5.98
2019-02-10T04:13:18.403Z,5.93
2019-02-10T04:15:11.238Z,5.93
2019-02-10T04:16:11.083Z,5.95
2019-02-10T04:18:03.856Z,6.02
2019-02-10T04:19:03.778Z,5.96
2019-02-10T04:20:56.536Z,5.95
2019-02-10T04:21:56.459Z,6.02
2019-02-10T04:23:49.249Z,6.16
2019-02-10T04:24:49.132Z,6.10
2019-02-10T04:26:41.901Z,6.13
2019-02-10T04:27:41.825Z,6.14
2019-02-10T04:29:34.568Z,6.11
2019-02-10T04:30:34.501Z,6.14
2019-02-10T04:32:27.258Z,6.11
2019-02-10T04:33:27.180Z,6.13
2019-02-10T04:35:19.934Z,6.08
2019-02-10T04:36:19.864Z,5.96
2019-02-10T04:38:12.655Z,6.06
2019-02-10T04:39:12.573Z,6.08
2019-02-10T04:41:05.344Z,6.19
2019-02-10T04:42:05.256Z,6.16
2019-02-10T04:43:58.004Z,5.98
2019-02-10T04:44:57.934Z,5.95
2019-02-10T04:46:50.692Z,6.05
2019-02-10T04:47:50.616Z,6.10
2019-02-10T04:49:43.360Z,6.13
2019-02-10T04:50:43.289Z,6.05
2019-02-10T04:52:36.056Z,6.17
2019-02-10T04:53:35.978Z,6.14
2019-02-10T04:55:28.742Z,6.19
2019-02-10T04:56:28.665Z,6.21
2019-02-10T04:58:21.444Z,6.21
2019-02-10T04:59:21.354Z,6.20
2019-02-10T05:01:14.141Z,6.11
2019-02-10T05:02:14.042Z,6.13
2019-02-10T05:04:06.800Z,6.20
2019-02-10T05:05:06.727Z,6.20
2019-02-10T05:06:59.512Z,6.13
2019-02-10T05:07:59.432Z,6.08
2019-02-10T05:09:52.177Z,6.08
2019-02-10T05:10:52.107Z,6.03
2019-02-10T05:12:44.864Z,6.01
2019-02-10T05:13:44.809Z,5.99
2019-02-10T05:15:37.539Z,6.10
2019-02-10T05:16:37.473Z,6.06
2019-02-10T05:18:30.263Z,5.98
2019-02-10T05:19:30.155Z,5.99
2019-02-10T05:21:22.924Z,6.06
2019-02-10T05:22:22.843Z,6.01
2019-02-10T05:24:15.610Z,6.11
2019-02-10T05:25:15.542Z,6.06
2019-02-10T05:27:08.317Z,6.17
2019-02-10T05:28:08.222Z,6.17
2019-02-10T05:30:00.973Z,6.21
2019-02-10T05:31:00.900Z,6.20
2019-02-10T05:32:53.689Z,6.24
2019-02-10T05:33:53.600Z,6.14
2019-02-10T05:35:46.356Z,6.20
2019-02-10T05:36:46.288Z,6.21
2019-02-10T05:38:39.056Z,6.24
2019-02-10T05:39:38.973Z,6.21
2019-02-10T05:41:31.771Z,6.24
2019-02-10T05:42:31.687Z,6.21
2019-02-10T05:44:24.442Z,6.19
2019-02-10T05:45:24.366Z,6.25
2019-02-10T05:47:17.131Z,6.25
2019-02-10T05:48:17.096Z,6.25
2019-02-10T05:50:09.798Z,6.33
2019-02-10T05:51:09.737Z,6.28
2019-02-10T05:53:02.515Z,6.27
2019-02-10T05:54:02.432Z,6.33
2019-02-10T05:55:55.182Z,6.38
2019-02-10T05:56:55.109Z,6.33
2019-02-10T05:58:47.893Z,6.33
2019-02-10T05:59:47.809Z,6.38
2019-02-10T06:01:40.585Z,6.38
2019-02-10T06:02:40.501Z,6.50
2019-02-10T06:04:33.256Z,6.50
2019-02-10T06:05:33.190Z,6.48
2019-02-10T06:07:25.946Z,6.50
2019-02-10T06:08:25.858Z,6.48
2019-02-10T06:10:18.615Z,6.54
2019-02-10T06:11:18.546Z,6.61
2019-02-10T06:13:11.302Z,6.63
2019-02-10T06:14:11.223Z,6.60
2019-02-10T06:16:03.980Z,6.55
2019-02-10T06:17:03.908Z,6.60
2019-02-10T06:18:56.687Z,6.60
2019-02-10T06:19:56.604Z,6.58
2019-02-10T06:21:49.381Z,6.65
2019-02-10T06:22:49.294Z,6.65
2019-02-10T06:24:42.068Z,6.72
2019-02-10T06:25:41.972Z,6.64
2019-02-10T06:27:34.731Z,6.65
2019-02-10T06:28:34.651Z,6.65
2019-02-10T06:30:27.415Z,6.63
2019-02-10T06:31:27.344Z,6.73
2019-02-10T06:33:20.110Z,6.71
2019-02-10T06:34:20.026Z,6.64
2019-02-10T06:36:12.772Z,6.63
2019-02-10T06:37:12.703Z,6.57
2019-02-10T06:39:05.469Z,6.55
2019-02-10T06:40:05.391Z,6.65
2019-02-10T06:41:58.190Z,6.54
2019-02-10T06:42:58.087Z,6.58
2019-02-10T06:44:50.873Z,6.60
2019-02-10T06:45:50.781Z,6.63
2019-02-10T06:47:43.553Z,6.57
2019-02-10T06:48:43.489Z,6.61
2019-02-10T06:50:36.245Z,6.60
2019-02-10T06:51:36.172Z,6.60
2019-02-10T06:53:28.937Z,6.60
2019-02-10T06:54:28.850Z,6.63
2019-02-10T06:56:21.612Z,6.55
2019-02-10T06:57:21.550Z,6.60
2019-02-10T06:59:14.312Z,6.61
2019-02-10T07:00:14.238Z,6.72
2019-02-10T07:02:06.982Z,6.72
2019-02-10T07:03:06.914Z,6.72
2019-02-10T07:04:59.699Z,6.72
2019-02-10T07:05:59.621Z,6.69
2019-02-10T07:07:52.380Z,6.72
2019-02-10T07:08:52.303Z,6.73
2019-02-10T07:10:45.103Z,6.68
2019-02-10T07:11:45.012Z,6.73
2019-02-10T07:13:37.800Z,6.63
2019-02-10T07:14:37.705Z,6.63
2019-02-10T07:16:30.467Z,6.76
2019-02-10T07:17:30.399Z,6.76
2019-02-10T07:19:23.165Z,6.79
2019-02-10T07:20:23.083Z,6.78
2019-02-10T07:22:15.859Z,6.76
2019-02-10T07:23:15.789Z,6.76
2019-02-10T07:25:08.562Z,6.78
2019-02-10T07:26:08.473Z,6.83
2019-02-10T07:28:01.237Z,6.93
2019-02-10T07:29:01.163Z,6.89
2019-02-10T07:30:53.928Z,6.96
2019-02-10T07:31:53.851Z,6.90
2019-02-10T07:33:46.613Z,6.99
2019-02-10T07:34:48.336Z,7.00
2019-02-10T07:36:39.287Z,7.00
2019-02-10T07:37:39.219Z,7.08
2019-02-10T07:39:32.003Z,7.07
2019-02-10T07:40:31.907Z,7.12
2019-02-10T07:42:24.658Z,7.16
2019-02-10T07:43:24.587Z,7.04
2019-02-10T07:45:17.362Z,7.08
2019-02-10T07:46:17.279Z,7.05
2019-02-10T07:48:10.224Z,7.15
2019-02-10T07:49:09.967Z,7.09
2019-02-10T07:51:02.736Z,7.12
2019-02-10T07:52:02.672Z,7.16
2019-02-10T07:53:55.432Z,7.19
2019-02-10T07:54:55.348Z,7.24
2019-02-10T07:56:48.122Z,7.19
2019-02-10T07:57:48.051Z,7.16
2019-02-10T07:59:40.814Z,7.16
2019-02-10T08:00:40.738Z,7.19
2019-02-10T08:02:33.498Z,7.26
2019-02-10T08:03:33.429Z,7.24
2019-02-10T08:05:26.247Z,7.29
2019-02-10T08:06:26.110Z,7.39
2019-02-10T08:08:18.895Z,7.32
2019-02-10T08:09:18.812Z,7.36
2019-02-10T08:11:11.575Z,7.33
2019-02-10T08:12:11.496Z,7.42
2019-02-10T08:14:04.264Z,7.44
2019-02-10T08:15:04.183Z,7.45
2019-02-10T08:16:56.986Z,7.44
2019-02-10T08:17:56.876Z,7.44
2019-02-10T08:19:49.664Z,7.47
2019-02-10T08:20:49.584Z,7.41
2019-02-10T08:22:42.351Z,7.41
2019-02-10T08:23:42.348Z,7.45
2019-02-10T08:25:35.124Z,7.44
2019-02-10T08:26:35.049Z,7.36
2019-02-10T08:28:26.831Z,7.24
2019-02-10T08:29:26.750Z,7.21
2019-02-10T08:31:19.572Z,7.14
2019-02-10T08:32:19.478Z,7.24
2019-02-10T08:34:12.398Z,7.18
2019-02-10T08:35:12.176Z,7.23
2019-02-10T08:37:04.965Z,7.21
2019-02-10T08:38:04.877Z,7.23
2019-02-10T08:39:57.718Z,7.14
2019-02-10T08:40:57.641Z,7.16
2019-02-10T08:42:50.432Z,7.14
2019-02-10T08:43:50.322Z,7.11
2019-02-10T08:45:43.134Z,7.09
2019-02-10T08:46:43.034Z,7.07
2019-02-10T08:48:35.811Z,7.08
2019-02-10T08:49:35.745Z,7.09
2019-02-10T08:51:28.587Z,7.08
2019-02-10T08:52:28.479Z,7.14
2019-02-10T08:54:21.255Z,7.04
2019-02-10T08:55:21.176Z,7.07
2019-02-10T08:57:13.960Z,7.09
2019-02-10T08:58:13.992Z,7.12
2019-02-10T09:00:06.668Z,7.04
2019-02-10T09:01:06.573Z,7.05
2019-02-10T09:02:59.360Z,7.14
2019-02-10T09:03:59.289Z,7.08
2019-02-10T09:05:52.063Z,7.09
2019-02-10T09:06:51.956Z,7.04
2019-02-10T09:08:44.804Z,7.15
2019-02-10T09:09:44.740Z,7.08
2019-02-10T09:11:37.462Z,7.08
2019-02-10T09:12:37.370Z,7.11
2019-02-10T09:14:30.148Z,6.99
2019-02-10T09:15:30.065Z,7.00
2019-02-10T09:17:21.890Z,6.96
2019-02-10T09:18:21.796Z,6.91
2019-02-10T09:20:14.589Z,6.90
2019-02-10T09:21:14.500Z,6.87
2019-02-10T09:23:07.263Z,6.79
2019-02-10T09:24:07.197Z,6.72
2019-02-10T09:26:00.031Z,6.63
2019-02-10T09:26:59.940Z,6.69
2019-02-10T09:28:51.747Z,6.73
2019-02-10T09:29:51.670Z,6.71
2019-02-10T09:31:44.469Z,6.72
2019-02-10T09:32:44.388Z,6.64
2019-02-10T09:34:37.171Z,6.72
2019-02-10T09:35:37.068Z,6.68
2019-02-10T09:37:29.839Z,6.72
2019-02-10T09:38:29.756Z,6.71
2019-02-10T09:40:22.547Z,6.72
2019-02-10T09:41:22.515Z,6.68
2019-02-10T09:43:15.319Z,6.76
2019-02-10T09:44:15.269Z,6.81
2019-02-10T09:46:08.111Z,6.82
2019-02-10T09:47:07.995Z,6.75
2019-02-10T09:49:00.804Z,6.76
2019-02-10T09:50:00.732Z,6.81
2019-02-10T09:51:53.513Z,6.75
2019-02-10T09:52:53.425Z,6.79
2019-02-10T09:54:46.627Z,6.81
2019-02-10T09:55:46.543Z,6.81
2019-02-10T09:57:39.468Z,6.78
2019-02-10T09:58:39.383Z,6.78
2019-02-10T10:00:32.181Z,6.79
2019-02-10T10:01:32.131Z,6.82
2019-02-10T10:03:24.993Z,6.76
2019-02-10T10:04:24.789Z,6.78
2019-02-10T10:06:17.567Z,6.64
2019-02-10T10:07:17.479Z,6.64
2019-02-10T10:09:10.252Z,6.71
2019-02-10T10:10:10.175Z,6.73
2019-02-10T10:12:02.959Z,6.68
2019-02-10T10:13:02.879Z,6.60
2019-02-10T10:14:55.688Z,6.71
2019-02-10T10:15:55.589Z,6.75
2019-02-10T10:17:48.366Z,6.64
2019-02-10T10:18:48.284Z,6.76
2019-02-10T10:20:41.102Z,6.73
2019-02-10T10:21:40.983Z,6.64
2019-02-10T10:23:33.756Z,6.71
2019-02-10T10:24:33.678Z,6.68
2019-02-10T10:26:26.538Z,6.75
2019-02-10T10:27:26.441Z,6.82
2019-02-10T10:29:19.221Z,6.81
2019-02-10T10:30:19.158Z,6.76
2019-02-10T10:32:11.909Z,6.72
2019-02-10T10:33:11.826Z,6.78
2019-02-10T10:35:04.598Z,6.69
2019-02-10T10:36:04.513Z,6.65
2019-02-10T10:37:57.303Z,6.75
2019-02-10T10:38:57.222Z,6.76
2019-02-10T10:40:49.980Z,6.73
2019-02-10T10:41:49.893Z,6.81
2019-02-10T10:43:42.701Z,6.78
2019-02-10T10:44:42.629Z,6.75
2019-02-10T10:46:35.396Z,6.78
2019-02-10T10:47:35.316Z,6.79
2019-02-10T10:49:28.073Z,6.82
2019-02-10T10:50:28.027Z,6.82
2019-02-10T10:52:20.766Z,6.75
2019-02-10T10:53:20.683Z,6.76
2019-02-10T10:55:13.442Z,6.79
2019-02-10T10:56:13.369Z,6.89
2019-02-10T10:58:06.138Z,6.94
2019-02-10T10:59:06.060Z,6.90
2019-02-10T11:00:58.863Z,6.82
2019-02-10T11:01:58.770Z,6.73
2019-02-10T11:03:51.550Z,6.83
2019-02-10T11:04:51.478Z,6.87
2019-02-10T11:06:44.298Z,6.75
2019-02-10T11:07:44.201Z,6.87
2019-02-10T11:09:36.964Z,6.82
2019-02-10T11:10:36.889Z,6.90
2019-02-10T11:12:29.757Z,6.91
2019-02-10T11:13:29.565Z,6.94
2019-02-10T11:15:22.350Z,6.86
2019-02-10T11:16:22.273Z,7.09
2019-02-10T11:18:15.039Z,7.21
2019-02-10T11:19:14.959Z,7.26
2019-02-10T11:21:07.831Z,7.27
2019-02-10T11:22:07.704Z,7.32
2019-02-10T11:24:00.470Z,7.24
2019-02-10T11:25:00.487Z,7.18
2019-02-10T11:26:53.181Z,7.18
2019-02-10T11:27:53.111Z,7.14
2019-02-10T11:29:45.891Z,7.19
2019-02-10T11:30:45.834Z,7.16
2019-02-10T11:32:38.612Z,7.23
2019-02-10T11:33:38.507Z,7.19
2019-02-10T11:35:31.286Z,7.26
2019-02-10T11:36:31.219Z,7.26
2019-02-10T11:38:24.002Z,7.30
2019-02-10T11:39:23.972Z,7.30
2019-02-10T11:41:16.695Z,7.33
2019-02-10T11:42:16.685Z,7.37
2019-02-10T11:44:09.412Z,7.37
2019-02-10T11:45:09.336Z,7.48
2019-02-10T11:47:02.100Z,7.48
2019-02-10T11:48:01.999Z,7.58
2019-02-10T11:49:54.781Z,7.63
2019-02-10T11:50:54.683Z,7.60
2019-02-10T11:52:47.651Z,7.66
2019-02-10T11:53:47.620Z,7.73
2019-02-10T11:55:40.172Z,7.79
2019-02-10T11:56:40.094Z,7.81
2019-02-10T11:58:32.870Z,7.84
2019-02-10T11:59:32.792Z,7.91
2019-02-10T12:01:25.560Z,8.00
2019-02-10T12:02:25.501Z,7.92
2019-02-10T12:04:18.242Z,7.99
2019-02-10T12:05:18.190Z,7.99
2019-02-10T12:07:11.106Z,8.02
2019-02-10T12:08:10.854Z,8.04
2019-02-10T12:10:03.609Z,8.09
2019-02-10T12:11:03.542Z,8.17
2019-02-10T12:12:56.336Z,8.34
2019-02-10T12:13:56.238Z,8.21
2019-02-10T12:15:49.050Z,8.14
2019-02-10T12:16:48.975Z,8.06
2019-02-10T12:18:41.743Z,8.04
2019-02-10T12:19:41.669Z,8.02
2019-02-10T12:21:34.447Z,8.09
2019-02-10T12:22:34.363Z,8.13
2019-02-10T12:24:27.144Z,8.09
2019-02-10T12:25:27.070Z,8.12
2019-02-10T12:27:19.843Z,8.03
2019-02-10T12:28:19.759Z,8.06
2019-02-10T12:30:12.549Z,8.12
2019-02-10T12:31:12.473Z,8.18
2019-02-10T12:33:05.260Z,8.09
2019-02-10T12:34:05.170Z,8.03
2019-02-10T12:35:58.564Z,8.06
2019-02-10T12:36:57.896Z,8.09
2019-02-10T12:38:50.655Z,8.06
2019-02-10T12:39:50.636Z,8.13
2019-02-10T12:41:43.388Z,8.10
2019-02-10T12:42:43.321Z,8.14
2019-02-10T12:44:36.127Z,8.18
2019-02-10T12:45:36.019Z,8.17
2019-02-10T12:47:28.879Z,8.22
2019-02-10T12:48:28.912Z,8.20
2019-02-10T12:50:21.629Z,8.18
2019-02-10T12:51:21.530Z,8.22
2019-02-10T12:53:14.313Z,8.18
2019-02-10T12:54:14.533Z,8.22
2019-02-10T12:56:07.008Z,8.22
2019-02-10T12:57:06.925Z,8.18
2019-02-10T12:58:59.700Z,8.21
2019-02-10T12:59:59.621Z,8.21
2019-02-10T13:01:52.387Z,8.22
2019-02-10T13:02:52.325Z,8.18
2019-02-10T13:04:45.107Z,8.27
2019-02-10T13:05:45.041Z,8.31
2019-02-10T13:07:37.789Z,8.21
2019-02-10T13:08:37.715Z,8.31
2019-02-10T13:10:30.592Z,8.28
2019-02-10T13:11:30.470Z,8.24
2019-02-10T13:13:23.238Z,8.28
2019-02-10T13:14:23.172Z,8.28
2019-02-10T13:16:15.948Z,8.25
2019-02-10T13:17:15.854Z,8.29
2019-02-10T13:19:08.730Z,8.34
2019-02-10T13:20:08.646Z,8.32
2019-02-10T13:22:01.402Z,8.27
2019-02-10T13:23:01.385Z,8.32
2019-02-10T13:24:54.140Z,8.43
2019-02-10T13:25:54.039Z,8.34
2019-02-10T13:27:46.831Z,8.37
2019-02-10T13:28:46.762Z,8.39
2019-02-10T13:30:39.538Z,8.39
2019-02-10T13:31:39.454Z,8.37
2019-02-10T13:33:32.230Z,8.42
2019-02-10T13:34:32.140Z,8.42
2019-02-10T13:36:24.917Z,8.45
2019-02-10T13:37:24.840Z,8.43
2019-02-10T13:39:17.663Z,8.50
2019-02-10T13:40:17.576Z,8.49
2019-02-10T13:42:10.516Z,8.50
2019-02-10T13:43:10.274Z,8.49
2019-02-10T13:45:03.065Z,8.52
2019-02-10T13:46:02.962Z,8.47
2019-02-10T13:47:55.734Z,8.43
2019-02-10T13:48:55.656Z,8.50
2019-02-10T13:50:48.475Z,8.47
2019-02-10T13:51:48.385Z,8.45
2019-02-10T13:53:41.157Z,8.40
2019-02-10T13:54:41.067Z,8.45
2019-02-10T13:56:33.851Z,8.49
2019-02-10T13:57:33.758Z,8.50
2019-02-10T13:59:26.630Z,8.46
2019-02-10T14:00:26.480Z,8.43
2019-02-10T14:02:19.248Z,8.36
2019-02-10T14:03:19.232Z,8.43
2019-02-10T14:05:11.960Z,8.40
2019-02-10T14:06:11.870Z,8.37
2019-02-10T14:08:04.642Z,8.37
2019-02-10T14:09:06.232Z,8.37
2019-02-10T14:10:57.354Z,8.40
2019-02-10T14:11:57.327Z,8.36
2019-02-10T14:13:50.088Z,8.39
2019-02-10T14:14:49.993Z,8.42
2019-02-10T14:16:42.836Z,8.37
2019-02-10T14:17:42.684Z,8.45
2019-02-10T14:19:35.508Z,8.45
2019-02-10T14:20:35.426Z,8.42
2019-02-10T14:22:27.311Z,8.45
2019-02-10T14:23:27.253Z,8.42
2019-02-10T14:25:19.087Z,8.42
2019-02-10T14:26:18.988Z,8.42
2019-02-10T14:28:10.747Z,8.42
2019-02-10T14:29:10.671Z,8.42
2019-02-10T14:31:02.463Z,8.47
2019-02-10T14:32:02.362Z,8.42
2019-02-10T14:33:54.148Z,8.45
2019-02-10T14:34:54.069Z,8.42
2019-02-10T14:36:46.862Z,8.43
2019-02-10T14:37:46.788Z,8.40
2019-02-10T14:39:39.594Z,8.45
2019-02-10T14:40:39.504Z,8.47
2019-02-10T14:42:32.771Z,8.49
2019-02-10T14:43:32.706Z,8.43
2019-02-10T14:45:25.497Z,8.46
2019-02-10T14:46:25.407Z,8.40
2019-02-10T14:48:18.193Z,8.45
2019-02-10T14:49:18.123Z,8.45
2019-02-10T14:51:10.937Z,8.42
2019-02-10T14:52:10.856Z,8.49
2019-02-10T14:54:02.690Z,8.45
2019-02-10T14:55:02.589Z,8.43
2019-02-10T14:56:55.344Z,8.47
2019-02-10T14:57:55.274Z,8.49
2019-02-10T14:59:48.046Z,8.43
2019-02-10T15:00:47.972Z,8.43
2019-02-10T15:02:40.736Z,8.42
2019-02-10T15:03:40.670Z,8.42
2019-02-10T15:05:33.447Z,8.46
2019-02-10T15:06:33.362Z,8.46
2019-02-10T15:08:26.281Z,8.46
2019-02-10T15:09:26.208Z,8.43
2019-02-10T15:11:19.010Z,8.49
2019-02-10T15:12:18.912Z,8.45
2019-02-10T15:14:11.701Z,8.49
2019-02-10T15:15:11.611Z,8.49
2019-02-10T15:17:04.388Z,8.49
2019-02-10T15:18:04.314Z,8.49
2019-02-10T15:19:57.090Z,8.54
2019-02-10T15:20:57.001Z,8.54
2019-02-10T15:22:49.760Z,8.52
2019-02-10T15:23:49.691Z,8.47
2019-02-10T15:25:42.493Z,8.54
2019-02-10T15:26:42.391Z,8.50
2019-02-10T15:28:35.188Z,8.63
2019-02-10T15:29:35.114Z,8.49
2019-02-10T15:31:27.880Z,8.54
2019-02-10T15:32:27.800Z,8.52
2019-02-10T15:34:20.583Z,8.43
2019-02-10T15:35:20.509Z,8.42
2019-02-10T15:37:13.306Z,8.36
2019-02-10T15:38:13.234Z,8.45
2019-02-10T15:40:05.990Z,8.37
2019-02-10T15:41:05.906Z,8.34
2019-02-10T15:42:58.738Z,8.43
2019-02-10T15:43:58.671Z,8.47
2019-02-10T15:45:51.596Z,8.42
2019-02-10T15:46:51.518Z,8.39
2019-02-10T15:48:44.275Z,8.37
2019-02-10T15:49:44.229Z,8.29
2019-02-10T15:51:37.462Z,8.34
2019-02-10T15:52:37.010Z,8.34
2019-02-10T15:54:29.796Z,8.32
2019-02-10T15:55:29.720Z,8.39
2019-02-10T15:57:22.564Z,8.39
2019-02-10T15:58:22.556Z,8.42
2019-02-10T16:00:15.250Z,8.43
2019-02-10T16:01:15.166Z,8.40
2019-02-10T16:03:07.955Z,8.32
2019-02-10T16:04:07.873Z,8.34
2019-02-10T16:06:00.792Z,8.34
2019-02-10T16:07:00.640Z,8.39
2019-02-10T16:08:53.870Z,8.42
2019-02-10T16:09:53.513Z,8.39
2019-02-10T16:11:46.250Z,8.36
2019-02-10T16:12:46.167Z,8.39
2019-02-10T16:14:38.926Z,8.39
2019-02-10T16:15:38.856Z,8.39
2019-02-10T16:17:30.718Z,8.31
2019-02-10T16:18:30.644Z,8.40
2019-02-10T16:20:25.111Z,8.39
2019-02-10T16:21:23.384Z,8.37
2019-02-10T16:23:16.106Z,8.36
2019-02-10T16:24:16.035Z,8.36
2019-02-10T16:26:08.806Z,8.32
2019-02-10T16:27:08.726Z,8.37
2019-02-10T16:29:00.530Z,8.36
2019-02-10T16:30:00.463Z,8.34
2019-02-10T16:31:53.227Z,8.31
2019-02-10T16:32:53.145Z,8.31
2019-02-10T16:34:45.908Z,8.32
2019-02-10T16:35:45.838Z,8.39
2019-02-10T16:37:38.603Z,8.40
2019-02-10T16:38:38.521Z,8.52
2019-02-10T16:40:31.323Z,8.49
2019-02-10T16:41:31.232Z,8.40
2019-02-10T16:43:24.013Z,8.36
2019-02-10T16:44:23.940Z,8.34
2019-02-10T16:46:16.731Z,8.29
2019-02-10T16:47:16.660Z,8.43
2019-02-10T16:49:09.436Z,8.31
2019-02-10T16:50:09.365Z,8.37
2019-02-10T16:52:02.171Z,8.37
2019-02-10T16:53:02.087Z,8.43
2019-02-10T16:54:54.902Z,8.43
2019-02-10T16:55:54.781Z,8.46
2019-02-10T16:57:47.576Z,8.49
2019-02-10T16:58:47.478Z,8.55
2019-02-10T17:00:40.227Z,8.45
2019-02-10T17:01:40.154Z,8.50
2019-02-10T17:03:32.921Z,8.50
2019-02-10T17:04:32.846Z,8.49
2019-02-10T17:06:25.631Z,8.58
2019-02-10T17:07:25.545Z,8.55
2019-02-10T17:09:18.314Z,8.63
2019-02-10T17:10:18.248Z,8.58
2019-02-10T17:12:11.033Z,8.68
2019-02-10T17:13:11.031Z,8.63
2019-02-10T17:15:03.700Z,8.67
2019-02-10T17:16:05.240Z,8.70
2019-02-10T17:17:56.405Z,8.67
2019-02-10T17:18:56.316Z,8.68
2019-02-10T17:20:49.088Z,8.71
2019-02-10T17:21:49.017Z,8.71
2019-02-10T17:23:41.796Z,8.68
2019-02-10T17:24:41.723Z,8.79
2019-02-10T17:26:34.502Z,8.76
2019-02-10T17:27:34.409Z,8.76
2019-02-10T17:29:28.713Z,8.86
2019-02-10T17:30:27.093Z,8.82
2019-02-10T17:32:19.883Z,8.94
2019-02-10T17:33:19.862Z,8.93
2019-02-10T17:35:12.572Z,8.98
2019-02-10T17:36:12.504Z,9.06
2019-02-10T17:38:05.276Z,8.97
2019-02-10T17:39:05.188Z,8.97
2019-02-10T17:40:58.163Z,8.98
2019-02-10T17:41:57.903Z,8.97
2019-02-10T17:43:50.697Z,9.13
2019-02-10T17:44:50.611Z,9.17
2019-02-10T17:46:43.414Z,9.37
2019-02-10T17:47:43.310Z,9.31
2019-02-10T17:49:36.238Z,9.35
2019-02-10T17:50:36.120Z,9.37
2019-02-10T17:52:31.946Z,9.37
2019-02-10T17:53:28.849Z,9.37
2019-02-10T17:55:21.668Z,9.37
2019-02-10T17:56:21.575Z,9.34
2019-02-10T17:58:14.378Z,9.41
2019-02-10T17:59:14.298Z,9.40
2019-02-10T18:01:07.044Z,9.34
2019-02-10T18:02:06.965Z,9.44
2019-02-10T18:03:59.784Z,9.35
2019-02-10T18:04:59.677Z,9.34
2019-02-10T18:06:52.437Z,9.45
2019-02-10T18:07:52.380Z,9.42
2019-02-10T18:09:45.202Z,9.41
2019-02-10T18:10:45.076Z,9.40
2019-02-10T18:12:38.422Z,9.49
2019-02-10T18:13:38.280Z,9.41
2019-02-10T18:15:31.191Z,9.53
2019-02-10T18:16:31.035Z,9.49
2019-02-10T18:18:23.757Z,9.56
2019-02-10T18:19:23.669Z,9.62
2019-02-10T18:21:16.487Z,9.65
2019-02-10T18:22:16.402Z,9.58
2019-02-10T18:24:09.189Z,9.56
2019-02-10T18:25:09.092Z,9.55
2019-02-10T18:27:01.864Z,9.67
2019-02-10T18:28:01.796Z,9.65
2019-02-10T18:29:54.572Z,9.56
2019-02-10T18:30:54.487Z,9.62
2019-02-10T18:32:47.268Z,9.53
2019-02-10T18:33:47.185Z,9.56
2019-02-10T18:35:39.950Z,9.50
2019-02-10T18:36:39.889Z,9.40
2019-02-10T18:38:32.679Z,9.42
2019-02-10T18:39:32.603Z,9.34
2019-02-10T18:41:25.374Z,9.42
2019-02-10T18:42:25.292Z,9.42
2019-02-10T18:44:17.086Z,9.42
2019-02-10T18:45:16.966Z,9.34
2019-02-10T18:47:08.775Z,9.42
2019-02-10T18:48:08.702Z,9.40
2019-02-10T18:50:00.495Z,9.42
2019-02-10T18:51:00.412Z,9.48
2019-02-10T18:52:53.696Z,9.44
2019-02-10T18:53:53.626Z,9.48
2019-02-10T18:55:45.458Z,9.53
2019-02-10T18:56:45.380Z,9.42
2019-02-10T18:58:37.220Z,9.45
2019-02-10T18:59:37.137Z,9.41
2019-02-10T19:01:28.932Z,9.38
2019-02-10T19:02:28.831Z,9.40
2019-02-10T19:04:20.582Z,9.38
2019-02-10T19:05:20.499Z,9.40
2019-02-10T19:07:12.342Z,9.38
2019-02-10T19:08:12.223Z,9.38
2019-02-10T19:10:04.027Z,9.41